sensor_id;sensor_type;location;lat;lon;timestamp;P1;durP1;ratioP1;P2;durP2;ratioP2
36415;SDS011;22447;44.530;18.620;2022-10-04T00:00:58;66.55;;;29.80;;
36415;SDS011;22447;44.530;18.620;2022-10-04T00:03:46;84.25;;;35.85;;
36415;SDS011;22447;44.530;18.620;2022-10-04T00:06:19;69.72;;;29.98;;
36415;SDS011;22447;44.530;18.620;2022-10-04T00:13:39;66.75;;;25.73;;
36415;SDS011;22447;44.530;18.620;2022-10-04T00:16:16;59.55;;;25.27;;
36415;SDS011;22447;44.530;18.620;2022-10-04T00:18:59;107.15;;;29.42;;
36415;SDS011;22447;44.530;18.620;2022-10-04T00:24:33;72.55;;;25.13;;
36415;SDS011;22447;44.530;18.620;2022-10-04T00:30:12;87.13;;;27.33;;
36415;SDS011;22447;44.530;18.620;2022-10-04T00:33:02;67.25;;;28.70;;
36415;SDS011;22447;44.530;18.620;2022-10-04T00:37:55;70.57;;;28.45;;
36415;SDS011;22447;44.530;18.620;2022-10-04T00:40:35;71.80;;;28.73;;
36415;SDS011;22447;44.530;18.620;2022-10-04T00:43:11;65.53;;;28.67;;
36415;SDS011;22447;44.530;18.620;2022-10-04T00:45:46;57.65;;;25.73;;
36415;SDS011;22447;44.530;18.620;2022-10-04T00:48:23;65.05;;;26.38;;
36415;SDS011;22447;44.530;18.620;2022-10-04T00:56:35;71.80;;;29.45;;
36415;SDS011;22447;44.530;18.620;2022-10-04T01:01:43;79.60;;;29.35;;
36415;SDS011;22447;44.530;18.620;2022-10-04T01:04:23;72.72;;;31.70;;
36415;SDS011;22447;44.530;18.620;2022-10-04T01:06:56;88.35;;;36.40;;
36415;SDS011;22447;44.530;18.620;2022-10-04T01:09:24;99.93;;;40.93;;
36415;SDS011;22447;44.530;18.620;2022-10-04T01:11:56;105.97;;;45.92;;
36415;SDS011;22447;44.530;18.620;2022-10-04T01:17:18;85.57;;;37.53;;
36415;SDS011;22447;44.530;18.620;2022-10-04T01:19:52;76.82;;;36.83;;
36415;SDS011;22447;44.530;18.620;2022-10-04T01:25:00;71.15;;;35.42;;
36415;SDS011;22447;44.530;18.620;2022-10-04T01:27:30;67.53;;;31.88;;
36415;SDS011;22447;44.530;18.620;2022-10-04T01:29:59;71.22;;;30.13;;
36415;SDS011;22447;44.530;18.620;2022-10-04T01:32:27;66.22;;;32.42;;
36415;SDS011;22447;44.530;18.620;2022-10-04T01:34:55;71.13;;;33.80;;
36415;SDS011;22447;44.530;18.620;2022-10-04T01:37:21;61.90;;;31.65;;
36415;SDS011;22447;44.530;18.620;2022-10-04T01:39:47;59.67;;;28.42;;
36415;SDS011;22447;44.530;18.620;2022-10-04T01:42:24;63.20;;;30.00;;
36415;SDS011;22447;44.530;18.620;2022-10-04T01:44:58;54.90;;;23.70;;
36415;SDS011;22447;44.530;18.620;2022-10-04T01:47:37;57.97;;;27.80;;
36415;SDS011;22447;44.530;18.620;2022-10-04T01:50:29;66.90;;;31.83;;
36415;SDS011;22447;44.530;18.620;2022-10-04T01:55:51;74.88;;;36.78;;
36415;SDS011;22447;44.530;18.620;2022-10-04T01:58:24;75.13;;;38.10;;
36415;SDS011;22447;44.530;18.620;2022-10-04T02:00:55;75.05;;;35.85;;
36415;SDS011;22447;44.530;18.620;2022-10-04T02:03:32;77.00;;;35.65;;
36415;SDS011;22447;44.530;18.620;2022-10-04T02:06:02;71.50;;;35.30;;
36415;SDS011;22447;44.530;18.620;2022-10-04T02:08:32;79.80;;;35.22;;
36415;SDS011;22447;44.530;18.620;2022-10-04T02:11:08;68.85;;;34.22;;
36415;SDS011;22447;44.530;18.620;2022-10-04T02:13:40;69.03;;;35.13;;
36415;SDS011;22447;44.530;18.620;2022-10-04T02:16:09;73.35;;;36.20;;
36415;SDS011;22447;44.530;18.620;2022-10-04T02:18:36;69.15;;;36.53;;
36415;SDS011;22447;44.530;18.620;2022-10-04T02:21:04;76.22;;;38.80;;
36415;SDS011;22447;44.530;18.620;2022-10-04T02:23:31;67.05;;;35.53;;
36415;SDS011;22447;44.530;18.620;2022-10-04T02:26:03;74.63;;;35.00;;
36415;SDS011;22447;44.530;18.620;2022-10-04T02:28:31;70.50;;;35.83;;
36415;SDS011;22447;44.530;18.620;2022-10-04T02:30:58;74.50;;;35.35;;
36415;SDS011;22447;44.530;18.620;2022-10-04T02:33:44;68.15;;;34.05;;
36415;SDS011;22447;44.530;18.620;2022-10-04T02:36:13;75.90;;;36.50;;
36415;SDS011;22447;44.530;18.620;2022-10-04T02:38:41;75.80;;;37.45;;
36415;SDS011;22447;44.530;18.620;2022-10-04T02:41:19;84.68;;;39.75;;
36415;SDS011;22447;44.530;18.620;2022-10-04T02:43:53;74.88;;;38.78;;
36415;SDS011;22447;44.530;18.620;2022-10-04T02:46:27;67.85;;;35.20;;
36415;SDS011;22447;44.530;18.620;2022-10-04T02:49:01;63.08;;;29.08;;
36415;SDS011;22447;44.530;18.620;2022-10-04T02:51:38;68.88;;;35.85;;
36415;SDS011;22447;44.530;18.620;2022-10-04T02:56:57;80.45;;;39.70;;
36415;SDS011;22447;44.530;18.620;2022-10-04T02:59:25;75.32;;;39.25;;
36415;SDS011;22447;44.530;18.620;2022-10-04T03:01:54;78.97;;;41.28;;
36415;SDS011;22447;44.530;18.620;2022-10-04T03:04:30;87.32;;;43.20;;
36415;SDS011;22447;44.530;18.620;2022-10-04T03:06:58;86.03;;;43.20;;
36415;SDS011;22447;44.530;18.620;2022-10-04T03:09:29;87.35;;;42.30;;
36415;SDS011;22447;44.530;18.620;2022-10-04T03:11:55;77.85;;;40.42;;
36415;SDS011;22447;44.530;18.620;2022-10-04T03:14:22;62.95;;;35.20;;
36415;SDS011;22447;44.530;18.620;2022-10-04T03:16:54;64.88;;;35.60;;
36415;SDS011;22447;44.530;18.620;2022-10-04T03:19:22;64.65;;;33.42;;
36415;SDS011;22447;44.530;18.620;2022-10-04T03:21:52;65.53;;;33.33;;
36415;SDS011;22447;44.530;18.620;2022-10-04T03:26:56;55.70;;;27.80;;
36415;SDS011;22447;44.530;18.620;2022-10-04T03:29:25;58.65;;;29.35;;
36415;SDS011;22447;44.530;18.620;2022-10-04T03:31:54;55.53;;;27.70;;
36415;SDS011;22447;44.530;18.620;2022-10-04T03:34:27;50.13;;;26.70;;
36415;SDS011;22447;44.530;18.620;2022-10-04T03:36:58;53.42;;;26.65;;
36415;SDS011;22447;44.530;18.620;2022-10-04T03:39:30;55.60;;;27.48;;
36415;SDS011;22447;44.530;18.620;2022-10-04T03:44:43;51.40;;;26.60;;
36415;SDS011;22447;44.530;18.620;2022-10-04T03:47:11;50.53;;;26.08;;
36415;SDS011;22447;44.530;18.620;2022-10-04T03:49:44;51.30;;;26.42;;
36415;SDS011;22447;44.530;18.620;2022-10-04T03:52:16;48.90;;;25.38;;
36415;SDS011;22447;44.530;18.620;2022-10-04T03:54:54;49.25;;;25.52;;
36415;SDS011;22447;44.530;18.620;2022-10-04T03:57:24;47.90;;;24.88;;
36415;SDS011;22447;44.530;18.620;2022-10-04T03:59:50;52.33;;;26.33;;
36415;SDS011;22447;44.530;18.620;2022-10-04T04:10:26;49.75;;;24.90;;
36415;SDS011;22447;44.530;18.620;2022-10-04T04:15:35;49.10;;;24.45;;
36415;SDS011;22447;44.530;18.620;2022-10-04T04:18:27;46.80;;;24.33;;
36415;SDS011;22447;44.530;18.620;2022-10-04T04:20:55;45.20;;;23.85;;
36415;SDS011;22447;44.530;18.620;2022-10-04T04:23:30;53.72;;;24.65;;
36415;SDS011;22447;44.530;18.620;2022-10-04T04:26:00;41.15;;;22.13;;
36415;SDS011;22447;44.530;18.620;2022-10-04T04:28:38;44.80;;;23.30;;
36415;SDS011;22447;44.530;18.620;2022-10-04T04:31:12;45.55;;;22.40;;
36415;SDS011;22447;44.530;18.620;2022-10-04T04:34:12;43.47;;;23.00;;
36415;SDS011;22447;44.530;18.620;2022-10-04T04:36:38;47.20;;;22.40;;
36415;SDS011;22447;44.530;18.620;2022-10-04T04:39:12;43.05;;;22.33;;
36415;SDS011;22447;44.530;18.620;2022-10-04T04:41:58;37.80;;;21.17;;
36415;SDS011;22447;44.530;18.620;2022-10-04T04:44:26;41.65;;;21.77;;
36415;SDS011;22447;44.530;18.620;2022-10-04T04:46:53;41.80;;;23.73;;
36415;SDS011;22447;44.530;18.620;2022-10-04T04:49:21;41.10;;;22.23;;
36415;SDS011;22447;44.530;18.620;2022-10-04T04:51:49;41.03;;;20.98;;
36415;SDS011;22447;44.530;18.620;2022-10-04T04:54:16;35.40;;;18.55;;
36415;SDS011;22447;44.530;18.620;2022-10-04T04:56:47;42.50;;;20.02;;
36415;SDS011;22447;44.530;18.620;2022-10-04T04:59:16;33.92;;;17.85;;
36415;SDS011;22447;44.530;18.620;2022-10-04T05:01:46;48.20;;;19.90;;
36415;SDS011;22447;44.530;18.620;2022-10-04T05:04:15;38.78;;;18.77;;
36415;SDS011;22447;44.530;18.620;2022-10-04T05:07:00;41.83;;;21.35;;
36415;SDS011;22447;44.530;18.620;2022-10-04T05:09:34;125.72;;;60.45;;
36415;SDS011;22447;44.530;18.620;2022-10-04T05:14:44;46.45;;;20.00;;
36415;SDS011;22447;44.530;18.620;2022-10-04T05:17:25;48.75;;;18.38;;
36415;SDS011;22447;44.530;18.620;2022-10-04T05:19:56;41.97;;;18.77;;
36415;SDS011;22447;44.530;18.620;2022-10-04T05:22:24;40.10;;;18.73;;
36415;SDS011;22447;44.530;18.620;2022-10-04T05:25:03;34.35;;;18.02;;
36415;SDS011;22447;44.530;18.620;2022-10-04T05:27:35;40.47;;;19.10;;
36415;SDS011;22447;44.530;18.620;2022-10-04T05:33:08;41.85;;;19.63;;
36415;SDS011;22447;44.530;18.620;2022-10-04T05:48:44;51.30;;;20.02;;
36415;SDS011;22447;44.530;18.620;2022-10-04T05:51:20;50.55;;;19.67;;
36415;SDS011;22447;44.530;18.620;2022-10-04T05:53:52;43.33;;;16.38;;
36415;SDS011;22447;44.530;18.620;2022-10-04T06:10:46;61.25;;;19.77;;
36415;SDS011;22447;44.530;18.620;2022-10-04T06:13:48;50.95;;;19.52;;
36415;SDS011;22447;44.530;18.620;2022-10-04T06:19:47;77.47;;;28.30;;
36415;SDS011;22447;44.530;18.620;2022-10-04T06:22:41;49.90;;;17.90;;
36415;SDS011;22447;44.530;18.620;2022-10-04T06:25:12;33.17;;;16.08;;
36415;SDS011;22447;44.530;18.620;2022-10-04T06:48:20;73.60;;;23.65;;
36415;SDS011;22447;44.530;18.620;2022-10-04T06:53:59;61.75;;;16.00;;
36415;SDS011;22447;44.530;18.620;2022-10-04T07:02:22;34.80;;;15.02;;
36415;SDS011;22447;44.530;18.620;2022-10-04T07:04:53;42.63;;;17.08;;
36415;SDS011;22447;44.530;18.620;2022-10-04T07:07:46;72.80;;;21.20;;
36415;SDS011;22447;44.530;18.620;2022-10-04T07:15:54;61.60;;;23.27;;
36415;SDS011;22447;44.530;18.620;2022-10-04T07:18:24;46.72;;;19.52;;
36415;SDS011;22447;44.530;18.620;2022-10-04T07:20:59;58.65;;;18.70;;
36415;SDS011;22447;44.530;18.620;2022-10-04T07:23:43;78.07;;;23.30;;
36415;SDS011;22447;44.530;18.620;2022-10-04T07:29:14;64.85;;;21.88;;
36415;SDS011;22447;44.530;18.620;2022-10-04T07:34:30;47.30;;;18.20;;
36415;SDS011;22447;44.530;18.620;2022-10-04T07:37:00;65.75;;;21.80;;
36415;SDS011;22447;44.530;18.620;2022-10-04T07:39:39;59.20;;;17.85;;
36415;SDS011;22447;44.530;18.620;2022-10-04T07:45:15;45.85;;;17.35;;
36415;SDS011;22447;44.530;18.620;2022-10-04T07:48:00;48.08;;;17.38;;
36415;SDS011;22447;44.530;18.620;2022-10-04T07:50:29;38.17;;;16.42;;
36415;SDS011;22447;44.530;18.620;2022-10-04T07:53:06;55.97;;;18.23;;
36415;SDS011;22447;44.530;18.620;2022-10-04T07:55:42;44.50;;;18.48;;
36415;SDS011;22447;44.530;18.620;2022-10-04T07:58:24;39.13;;;15.88;;
36415;SDS011;22447;44.530;18.620;2022-10-04T08:09:55;36.28;;;10.80;;
36415;SDS011;22447;44.530;18.620;2022-10-04T08:17:46;42.33;;;14.02;;
36415;SDS011;22447;44.530;18.620;2022-10-04T08:20:24;25.90;;;10.65;;
36415;SDS011;22447;44.530;18.620;2022-10-04T08:37:00;24.25;;;11.07;;
36415;SDS011;22447;44.530;18.620;2022-10-04T08:45:15;36.83;;;13.20;;
36415;SDS011;22447;44.530;18.620;2022-10-04T08:50:57;35.60;;;10.60;;
36415;SDS011;22447;44.530;18.620;2022-10-04T09:13:37;13.02;;;4.97;;
36415;SDS011;22447;44.530;18.620;2022-10-04T09:26:55;30.45;;;4.85;;
36415;SDS011;22447;44.530;18.620;2022-10-04T09:46:38;17.83;;;4.57;;
36415;SDS011;22447;44.530;18.620;2022-10-04T09:55:04;13.75;;;4.00;;
36415;SDS011;22447;44.530;18.620;2022-10-04T10:09:10;11.93;;;4.32;;
36415;SDS011;22447;44.530;18.620;2022-10-04T10:15:26;36.92;;;9.93;;
36415;SDS011;22447;44.530;18.620;2022-10-04T11:05:53;25.65;;;6.85;;
36415;SDS011;22447;44.530;18.620;2022-10-04T11:08:44;41.28;;;9.00;;
36415;SDS011;22447;44.530;18.620;2022-10-04T11:16:56;35.83;;;10.40;;
36415;SDS011;22447;44.530;18.620;2022-10-04T11:28:40;23.15;;;7.68;;
36415;SDS011;22447;44.530;18.620;2022-10-04T11:34:28;20.60;;;6.63;;
36415;SDS011;22447;44.530;18.620;2022-10-04T12:06:01;14.20;;;5.72;;
36415;SDS011;22447;44.530;18.620;2022-10-04T12:20:02;15.57;;;5.25;;
36415;SDS011;22447;44.530;18.620;2022-10-04T12:33:37;25.67;;;6.15;;
36415;SDS011;22447;44.530;18.620;2022-10-04T12:52:45;7.40;;;2.58;;
36415;SDS011;22447;44.530;18.620;2022-10-04T12:55:40;21.88;;;4.53;;
36415;SDS011;22447;44.530;18.620;2022-10-04T13:01:24;31.55;;;6.88;;
36415;SDS011;22447;44.530;18.620;2022-10-04T13:10:02;8.85;;;3.40;;
36415;SDS011;22447;44.530;18.620;2022-10-04T13:18:35;11.45;;;3.20;;
36415;SDS011;22447;44.530;18.620;2022-10-04T13:27:30;8.82;;;3.40;;
36415;SDS011;22447;44.530;18.620;2022-10-04T13:30:12;16.00;;;6.50;;
36415;SDS011;22447;44.530;18.620;2022-10-04T13:35:17;12.98;;;3.80;;
36415;SDS011;22447;44.530;18.620;2022-10-04T13:40:52;17.55;;;4.68;;
36415;SDS011;22447;44.530;18.620;2022-10-04T13:49:06;16.80;;;5.35;;
36415;SDS011;22447;44.530;18.620;2022-10-04T13:55:16;12.93;;;3.38;;
36415;SDS011;22447;44.530;18.620;2022-10-04T13:58:16;17.77;;;3.17;;
36415;SDS011;22447;44.530;18.620;2022-10-04T14:01:05;7.38;;;3.65;;
36415;SDS011;22447;44.530;18.620;2022-10-04T14:18:02;9.43;;;3.10;;
36415;SDS011;22447;44.530;18.620;2022-10-04T14:20:53;13.95;;;5.55;;
36415;SDS011;22447;44.530;18.620;2022-10-04T14:23:42;15.23;;;3.83;;
36415;SDS011;22447;44.530;18.620;2022-10-04T14:34:44;11.05;;;2.75;;
36415;SDS011;22447;44.530;18.620;2022-10-04T14:40:31;68.28;;;27.00;;
36415;SDS011;22447;44.530;18.620;2022-10-04T14:46:18;18.77;;;6.95;;
36415;SDS011;22447;44.530;18.620;2022-10-04T14:54:51;57.72;;;20.80;;
36415;SDS011;22447;44.530;18.620;2022-10-04T14:57:37;13.48;;;5.00;;
36415;SDS011;22447;44.530;18.620;2022-10-04T15:00:22;22.77;;;6.35;;
36415;SDS011;22447;44.530;18.620;2022-10-04T15:03:24;13.40;;;3.63;;
36415;SDS011;22447;44.530;18.620;2022-10-04T15:06:14;16.25;;;5.40;;
36415;SDS011;22447;44.530;18.620;2022-10-04T15:08:53;46.75;;;16.45;;
36415;SDS011;22447;44.530;18.620;2022-10-04T15:11:58;70.63;;;25.35;;
36415;SDS011;22447;44.530;18.620;2022-10-04T15:14:40;86.63;;;34.35;;
36415;SDS011;22447;44.530;18.620;2022-10-04T15:17:27;32.70;;;17.42;;
36415;SDS011;22447;44.530;18.620;2022-10-04T15:22:37;23.33;;;12.15;;
36415;SDS011;22447;44.530;18.620;2022-10-04T15:31:22;7.15;;;2.22;;
36415;SDS011;22447;44.530;18.620;2022-10-04T15:36:43;24.33;;;11.50;;
36415;SDS011;22447;44.530;18.620;2022-10-04T15:42:23;8.43;;;3.58;;
36415;SDS011;22447;44.530;18.620;2022-10-04T15:59:33;11.88;;;4.50;;
36415;SDS011;22447;44.530;18.620;2022-10-04T16:05:11;45.85;;;22.13;;
36415;SDS011;22447;44.530;18.620;2022-10-04T16:18:43;150.95;;;70.00;;
36415;SDS011;22447;44.530;18.620;2022-10-04T16:29:21;54.38;;;24.13;;
36415;SDS011;22447;44.530;18.620;2022-10-04T16:31:54;49.42;;;24.20;;
36415;SDS011;22447;44.530;18.620;2022-10-04T16:34:25;31.23;;;13.55;;
36415;SDS011;22447;44.530;18.620;2022-10-04T16:56:13;28.80;;;13.60;;
36415;SDS011;22447;44.530;18.620;2022-10-04T17:03:52;32.97;;;15.55;;
36415;SDS011;22447;44.530;18.620;2022-10-04T17:06:35;25.15;;;11.15;;
36415;SDS011;22447;44.530;18.620;2022-10-04T17:12:10;21.20;;;10.68;;
36415;SDS011;22447;44.530;18.620;2022-10-04T17:25:51;20.83;;;9.68;;
36415;SDS011;22447;44.530;18.620;2022-10-04T17:28:55;22.48;;;10.60;;
36415;SDS011;22447;44.530;18.620;2022-10-04T17:34:16;24.08;;;11.00;;
36415;SDS011;22447;44.530;18.620;2022-10-04T17:37:19;24.73;;;11.15;;
36415;SDS011;22447;44.530;18.620;2022-10-04T17:45:28;34.13;;;14.00;;
36415;SDS011;22447;44.530;18.620;2022-10-04T17:57:26;35.65;;;16.58;;
36415;SDS011;22447;44.530;18.620;2022-10-04T18:00:12;41.75;;;17.50;;
36415;SDS011;22447;44.530;18.620;2022-10-04T18:05:14;38.00;;;17.63;;
36415;SDS011;22447;44.530;18.620;2022-10-04T18:07:57;43.30;;;18.45;;
36415;SDS011;22447;44.530;18.620;2022-10-04T18:10:38;35.90;;;17.92;;
36415;SDS011;22447;44.530;18.620;2022-10-04T18:13:24;33.03;;;16.48;;
36415;SDS011;22447;44.530;18.620;2022-10-04T18:16:14;34.95;;;16.35;;
36415;SDS011;22447;44.530;18.620;2022-10-04T18:18:46;40.08;;;17.35;;
36415;SDS011;22447;44.530;18.620;2022-10-04T18:21:23;36.45;;;17.10;;
36415;SDS011;22447;44.530;18.620;2022-10-04T18:23:54;30.05;;;16.70;;
36415;SDS011;22447;44.530;18.620;2022-10-04T18:26:23;34.30;;;16.95;;
36415;SDS011;22447;44.530;18.620;2022-10-04T18:28:52;33.83;;;17.17;;
36415;SDS011;22447;44.530;18.620;2022-10-04T18:34:01;38.53;;;16.42;;
36415;SDS011;22447;44.530;18.620;2022-10-04T18:36:50;34.88;;;15.23;;
36415;SDS011;22447;44.530;18.620;2022-10-04T18:39:21;35.38;;;14.93;;
36415;SDS011;22447;44.530;18.620;2022-10-04T18:42:06;31.05;;;15.82;;
36415;SDS011;22447;44.530;18.620;2022-10-04T18:45:00;33.53;;;15.02;;
36415;SDS011;22447;44.530;18.620;2022-10-04T18:47:44;26.85;;;14.38;;
36415;SDS011;22447;44.530;18.620;2022-10-04T18:50:15;39.28;;;20.48;;
36415;SDS011;22447;44.530;18.620;2022-10-04T18:52:45;60.38;;;31.20;;
36415;SDS011;22447;44.530;18.620;2022-10-04T18:58:20;67.75;;;37.58;;
36415;SDS011;22447;44.530;18.620;2022-10-04T19:04:37;82.35;;;46.85;;
36415;SDS011;22447;44.530;18.620;2022-10-04T19:07:09;72.60;;;40.95;;
36415;SDS011;22447;44.530;18.620;2022-10-04T19:12:17;66.80;;;34.20;;
36415;SDS011;22447;44.530;18.620;2022-10-04T19:14:53;68.38;;;34.08;;
36415;SDS011;22447;44.530;18.620;2022-10-04T19:20:29;74.63;;;37.22;;
36415;SDS011;22447;44.530;18.620;2022-10-04T19:29:24;88.90;;;44.65;;
36415;SDS011;22447;44.530;18.620;2022-10-04T19:32:08;102.55;;;51.42;;
36415;SDS011;22447;44.530;18.620;2022-10-04T19:40:58;82.70;;;43.75;;
36415;SDS011;22447;44.530;18.620;2022-10-04T19:43:20;76.20;;;40.70;;
36415;SDS011;22447;44.530;18.620;2022-10-04T19:46:18;70.25;;;39.13;;
36415;SDS011;22447;44.530;18.620;2022-10-04T19:48:49;84.72;;;43.55;;
36415;SDS011;22447;44.530;18.620;2022-10-04T19:53:51;108.60;;;56.90;;
36415;SDS011;22447;44.530;18.620;2022-10-04T20:01:35;121.43;;;65.70;;
36415;SDS011;22447;44.530;18.620;2022-10-04T20:04:03;125.07;;;65.88;;
36415;SDS011;22447;44.530;18.620;2022-10-04T20:06:56;104.18;;;56.50;;
36415;SDS011;22447;44.530;18.620;2022-10-04T20:11:55;123.05;;;60.75;;
36415;SDS011;22447;44.530;18.620;2022-10-04T20:21:47;337.08;;;141.35;;
36415;SDS011;22447;44.530;18.620;2022-10-04T20:24:17;385.17;;;159.18;;
36415;SDS011;22447;44.530;18.620;2022-10-04T20:27:05;359.08;;;150.23;;
36415;SDS011;22447;44.530;18.620;2022-10-04T20:35:01;135.57;;;66.78;;
36415;SDS011;22447;44.530;18.620;2022-10-04T20:45:43;77.07;;;42.63;;
36415;SDS011;22447;44.530;18.620;2022-10-04T20:48:11;79.10;;;41.20;;
36415;SDS011;22447;44.530;18.620;2022-10-04T20:50:58;75.85;;;40.25;;
36415;SDS011;22447;44.530;18.620;2022-10-04T20:53:33;74.55;;;40.83;;
36415;SDS011;22447;44.530;18.620;2022-10-04T20:56:10;79.05;;;39.40;;
36415;SDS011;22447;44.530;18.620;2022-10-04T20:58:41;82.53;;;43.65;;
36415;SDS011;22447;44.530;18.620;2022-10-04T21:01:21;84.10;;;42.97;;
36415;SDS011;22447;44.530;18.620;2022-10-04T21:07:06;145.95;;;67.28;;
36415;SDS011;22447;44.530;18.620;2022-10-04T21:09:36;111.75;;;50.25;;
36415;SDS011;22447;44.530;18.620;2022-10-04T21:12:03;150.32;;;63.45;;
36415;SDS011;22447;44.530;18.620;2022-10-04T21:14:34;120.28;;;56.55;;
36415;SDS011;22447;44.530;18.620;2022-10-04T21:17:02;129.63;;;58.30;;
36415;SDS011;22447;44.530;18.620;2022-10-04T21:19:48;106.28;;;46.72;;
36415;SDS011;22447;44.530;18.620;2022-10-04T21:32:23;62.67;;;32.60;;
36415;SDS011;22447;44.530;18.620;2022-10-04T21:34:50;59.63;;;31.33;;
36415;SDS011;22447;44.530;18.620;2022-10-04T21:37:16;54.25;;;30.38;;
36415;SDS011;22447;44.530;18.620;2022-10-04T21:39:43;61.63;;;30.70;;
36415;SDS011;22447;44.530;18.620;2022-10-04T21:42:09;57.83;;;31.60;;
36415;SDS011;22447;44.530;18.620;2022-10-04T21:44:35;79.68;;;39.30;;
36415;SDS011;22447;44.530;18.620;2022-10-04T21:47:01;111.57;;;50.63;;
36415;SDS011;22447;44.530;18.620;2022-10-04T21:49:28;89.13;;;41.85;;
36415;SDS011;22447;44.530;18.620;2022-10-04T21:51:53;74.00;;;37.78;;
36415;SDS011;22447;44.530;18.620;2022-10-04T21:54:19;60.60;;;31.40;;
36415;SDS011;22447;44.530;18.620;2022-10-04T21:56:45;61.42;;;31.13;;
36415;SDS011;22447;44.530;18.620;2022-10-04T21:59:11;57.47;;;30.25;;
36415;SDS011;22447;44.530;18.620;2022-10-04T22:01:37;70.80;;;32.83;;
36415;SDS011;22447;44.530;18.620;2022-10-04T22:04:03;67.50;;;31.98;;
36415;SDS011;22447;44.530;18.620;2022-10-04T22:06:29;101.70;;;39.70;;
36415;SDS011;22447;44.530;18.620;2022-10-04T22:08:55;105.13;;;41.50;;
36415;SDS011;22447;44.530;18.620;2022-10-04T22:11:21;81.78;;;35.17;;
36415;SDS011;22447;44.530;18.620;2022-10-04T22:13:47;62.28;;;30.95;;
36415;SDS011;22447;44.530;18.620;2022-10-04T22:16:13;57.67;;;28.42;;
36415;SDS011;22447;44.530;18.620;2022-10-04T22:18:39;76.32;;;33.85;;
36415;SDS011;22447;44.530;18.620;2022-10-04T22:21:05;83.43;;;36.10;;
36415;SDS011;22447;44.530;18.620;2022-10-04T22:23:35;73.90;;;34.28;;
36415;SDS011;22447;44.530;18.620;2022-10-04T22:26:14;164.13;;;60.85;;
36415;SDS011;22447;44.530;18.620;2022-10-04T22:28:43;205.88;;;75.28;;
36415;SDS011;22447;44.530;18.620;2022-10-04T22:31:11;153.43;;;56.42;;
36415;SDS011;22447;44.530;18.620;2022-10-04T22:33:39;165.88;;;60.88;;
36415;SDS011;22447;44.530;18.620;2022-10-04T22:38:43;220.02;;;78.40;;
36415;SDS011;22447;44.530;18.620;2022-10-04T22:41:15;209.73;;;75.80;;
36415;SDS011;22447;44.530;18.620;2022-10-04T22:43:46;145.38;;;56.83;;
36415;SDS011;22447;44.530;18.620;2022-10-04T22:46:14;94.00;;;40.00;;
36415;SDS011;22447;44.530;18.620;2022-10-04T22:48:43;63.33;;;29.83;;
36415;SDS011;22447;44.530;18.620;2022-10-04T22:51:11;63.72;;;30.27;;
36415;SDS011;22447;44.530;18.620;2022-10-04T22:53:41;57.88;;;29.50;;
36415;SDS011;22447;44.530;18.620;2022-10-04T22:56:08;88.75;;;37.85;;
36415;SDS011;22447;44.530;18.620;2022-10-04T22:58:37;91.93;;;39.88;;
36415;SDS011;22447;44.530;18.620;2022-10-04T23:01:08;65.63;;;30.42;;
36415;SDS011;22447;44.530;18.620;2022-10-04T23:03:39;74.63;;;34.63;;
36415;SDS011;22447;44.530;18.620;2022-10-04T23:06:09;113.80;;;45.13;;
36415;SDS011;22447;44.530;18.620;2022-10-04T23:08:41;99.57;;;41.50;;
36415;SDS011;22447;44.530;18.620;2022-10-04T23:11:08;128.77;;;49.05;;
36415;SDS011;22447;44.530;18.620;2022-10-04T23:13:35;94.22;;;41.33;;
36415;SDS011;22447;44.530;18.620;2022-10-04T23:16:16;95.35;;;38.90;;
36415;SDS011;22447;44.530;18.620;2022-10-04T23:18:45;82.38;;;36.50;;
36415;SDS011;22447;44.530;18.620;2022-10-04T23:21:18;113.85;;;43.92;;
36415;SDS011;22447;44.530;18.620;2022-10-04T23:23:49;82.32;;;36.97;;
36415;SDS011;22447;44.530;18.620;2022-10-04T23:26:25;75.28;;;34.20;;
36415;SDS011;22447;44.530;18.620;2022-10-04T23:28:57;78.45;;;36.05;;
36415;SDS011;22447;44.530;18.620;2022-10-04T23:31:24;70.45;;;34.13;;
36415;SDS011;22447;44.530;18.620;2022-10-04T23:33:52;76.50;;;34.13;;
36415;SDS011;22447;44.530;18.620;2022-10-04T23:36:21;67.53;;;32.83;;
36415;SDS011;22447;44.530;18.620;2022-10-04T23:38:55;97.40;;;42.78;;
36415;SDS011;22447;44.530;18.620;2022-10-04T23:41:23;89.45;;;42.30;;
36415;SDS011;22447;44.530;18.620;2022-10-04T23:43:50;64.00;;;29.63;;
36415;SDS011;22447;44.530;18.620;2022-10-04T23:46:20;43.28;;;21.25;;
36415;SDS011;22447;44.530;18.620;2022-10-04T23:48:48;44.33;;;23.55;;
36415;SDS011;22447;44.530;18.620;2022-10-04T23:51:15;42.92;;;23.15;;
36415;SDS011;22447;44.530;18.620;2022-10-04T23:53:44;48.97;;;23.95;;
36415;SDS011;22447;44.530;18.620;2022-10-04T23:58:43;57.85;;;28.50;;
